Time;durP1;ratioP1;P1;durP2;ratioP2;P2;SDS_P1;SDS_P2;PMS_P1;PMS_P2;Temp;Humidity;BMP_temperature;BMP_pressure;BME280_temperature;BME280_humidity;BME280_pressure;Samples;Min_cycle;Max_cycle;Signal;HPM_P1;HPM_P2
2022/05/24 00:01:59;;;;;;;12.70;10.27;;;19.10;66.70;;;;;;4992652;28;20034;-45
2022/05/24 00:04:30;;;;;;;11.23;9.57;;;19.10;66.80;;;;;;4991107;28;20046;-49
2022/05/24 00:06:58;;;;;;;10.00;8.95;;;19.10;66.80;;;;;;4986694;28;20569;-47
2022/05/24 00:09:27;;;;;;;11.25;9.38;;;19.10;66.70;;;;;;4991856;28;20097;-50
2022/05/24 00:11:57;;;;;;;10.70;9.60;;;19.10;66.80;;;;;;4991686;28;20060;-46
2022/05/24 00:17:13;;;;;;;12.00;10.73;;;19.10;66.80;;;;;;4988858;28;20042;-46
2022/05/24 00:19:41;;;;;;;14.07;10.48;;;19.10;67.00;;;;;;4990796;28;20085;-48
2022/05/24 00:22:10;;;;;;;12.85;10.63;;;19.00;66.90;;;;;;4987065;28;20088;-51
2022/05/24 00:24:39;;;;;;;12.13;10.73;;;19.00;66.90;;;;;;4985269;28;20078;-45
2022/05/24 00:27:08;;;;;;;14.85;11.63;;;19.00;67.30;;;;;;4991674;28;20046;-45
2022/05/24 00:29:35;;;;;;;12.57;11.00;;;19.00;67.10;;;;;;4976932;28;20450;-46
2022/05/24 00:32:07;;;;;;;13.80;11.18;;;19.00;67.10;;;;;;4987168;28;20047;-45
2022/05/24 00:34:36;;;;;;;13.20;11.07;;;19.00;67.20;;;;;;4990245;28;20045;-51
2022/05/24 00:37:03;;;;;;;13.00;11.60;;;19.00;67.40;;;;;;4991573;28;20046;-46
2022/05/24 00:39:32;;;;;;;14.48;10.02;;;18.90;67.40;;;;;;4991330;28;20050;-46
2022/05/24 00:42:24;;;;;;;13.88;10.98;;;18.90;67.30;;;;;;4988649;28;20398;-48
2022/05/24 00:45:09;;;;;;;12.23;10.88;;;19.00;67.90;;;;;;4988561;28;20092;-47
2022/05/24 00:47:41;;;;;;;12.95;11.20;;;18.90;68.10;;;;;;4974203;28;20607;-50
2022/05/24 00:50:15;;;;;;;12.07;10.68;;;18.90;67.50;;;;;;4990921;28;20046;-49
2022/05/24 00:53:27;;;;;;;14.02;11.35;;;18.90;67.10;;;;;;4986658;28;20085;-45
2022/05/24 00:56:05;;;;;;;12.23;10.30;;;18.80;67.40;;;;;;4976228;28;20413;-46
2022/05/24 00:58:50;;;;;;;11.88;10.10;;;18.80;67.10;;;;;;4991566;28;20050;-48
2022/05/24 01:01:40;;;;;;;11.93;10.48;;;18.80;67.20;;;;;;4987159;28;20090;-48
2022/05/24 01:04:11;;;;;;;13.50;10.23;;;18.70;67.40;;;;;;4989873;28;20453;-48
2022/05/24 01:06:41;;;;;;;10.75;9.68;;;18.70;66.80;;;;;;4983017;28;20049;-48
2022/05/24 01:09:12;;;;;;;10.35;9.23;;;18.60;66.90;;;;;;4990572;28;20069;-48
2022/05/24 01:11:45;;;;;;;13.13;9.10;;;18.60;66.80;;;;;;4987331;28;20042;-45
2022/05/24 01:14:15;;;;;;;11.07;8.43;;;18.60;66.70;;;;;;4990898;28;20065;-47
2022/05/24 01:16:42;;;;;;;11.27;9.07;;;18.60;66.50;;;;;;4989961;28;20081;-48
2022/05/24 01:19:45;;;;;;;10.85;8.18;;;18.50;66.20;;;;;;4987651;28;20069;-46
2022/05/24 01:22:30;;;;;;;;;;;18.50;66.20;;;;;;4936922;28;20686;-45
2022/05/24 01:25:18;;;;;;;9.32;6.40;;;18.50;65.50;;;;;;4989913;28;19968;-45
2022/05/24 01:27:45;;;;;;;9.02;6.40;;;18.40;64.80;;;;;;4989588;28;20042;-45
2022/05/24 01:30:14;;;;;;;7.57;5.93;;;18.30;65.00;;;;;;4986731;28;20047;-46
2022/05/24 01:38:24;;;;;;;6.75;5.55;;;18.10;65.20;;;;;;4987929;28;20498;-50
2022/05/24 01:40:53;;;;;;;9.88;6.65;;;18.00;65.70;;;;;;4992139;28;20453;-45
2022/05/24 01:43:27;;;;;;;8.52;6.07;;;18.00;65.70;;;;;;4992790;28;20043;-46
2022/05/24 01:46:10;;;;;;;;;;;18.00;65.70;;;;;;4990011;28;20073;-44
2022/05/24 01:48:42;;;;;;;8.85;6.15;;;18.00;65.40;;;;;;4984939;28;20428;-45
2022/05/24 01:51:21;;;;;;;8.43;6.57;;;17.90;65.40;;;;;;4990347;28;20054;-46
2022/05/24 01:53:52;;;;;;;9.30;5.80;;;17.90;65.70;;;;;;4990580;28;20096;-47
2022/05/24 01:56:57;;;;;;;6.75;6.03;;;17.90;65.70;;;;;;4986948;28;20070;-46
2022/05/24 01:59:28;;;;;;;7.78;5.80;;;17.80;65.90;;;;;;4985257;28;20415;-48
2022/05/24 02:02:00;;;;;;;9.32;6.13;;;17.70;66.30;;;;;;4990743;28;20101;-46
2022/05/24 02:04:29;;;;;;;;;;;17.70;65.70;;;;;;4990623;28;20409;-46
2022/05/24 02:07:08;;;;;;;8.60;5.43;;;17.70;65.30;;;;;;4988740;28;19922;-51
2022/05/24 02:09:37;;;;;;;8.82;5.80;;;17.70;65.60;;;;;;4993434;28;20042;-45
2022/05/24 02:12:21;;;;;;;6.32;5.72;;;17.60;65.50;;;;;;4994591;28;20522;-47
2022/05/24 02:14:55;;;;;;;6.78;5.72;;;17.60;66.40;;;;;;4993435;28;20050;-48
2022/05/24 02:17:39;;;;;;;7.05;4.97;;;17.60;65.80;;;;;;4987341;28;20041;-48
2022/05/24 02:20:10;;;;;;;10.55;5.28;;;17.50;65.80;;;;;;4993785;28;20043;-49
2022/05/24 02:22:38;;;;;;;5.25;4.32;;;17.60;65.90;;;;;;4974687;28;20466;-48
2022/05/24 02:25:20;;;;;;;7.85;4.78;;;17.50;65.70;;;;;;4973514;28;20035;-47
2022/05/24 02:27:50;;;;;;;4.57;4.03;;;17.50;65.90;;;;;;4989813;28;20399;-48
2022/05/24 02:30:26;;;;;;;6.80;5.10;;;17.50;65.60;;;;;;4993780;28;20068;-49
2022/05/24 02:32:53;;;;;;;8.10;5.10;;;17.50;65.80;;;;;;4993007;28;20526;-49
2022/05/24 02:35:26;;;;;;;7.82;4.50;;;17.50;65.70;;;;;;4984791;28;20534;-47
2022/05/24 02:37:53;;;;;;;8.18;5.13;;;17.50;65.70;;;;;;4993522;28;20046;-49
2022/05/24 02:43:11;;;;;;;8.23;4.57;;;17.50;65.00;;;;;;4990688;28;20039;-46
2022/05/24 02:45:39;;;;;;;7.22;3.85;;;17.50;64.70;;;;;;4992145;28;20039;-45
2022/05/24 02:48:06;;;;;;;6.70;4.30;;;17.40;64.70;;;;;;4993327;28;20045;-46
2022/05/24 02:50:37;;;;;;;7.50;4.33;;;17.40;64.80;;;;;;4991801;28;20053;-45
2022/05/24 02:53:06;;;;;;;5.43;4.10;;;17.40;64.80;;;;;;4991457;28;20038;-45
2022/05/24 02:55:42;;;;;;;7.95;3.90;;;17.40;64.70;;;;;;4987379;28;20136;-45
2022/05/24 02:58:09;;;;;;;7.43;4.55;;;17.30;64.70;;;;;;4993626;28;20042;-46
2022/05/24 03:00:36;;;;;;;10.30;4.88;;;17.30;64.70;;;;;;4973763;28;20043;-49
2022/05/24 03:03:03;;;;;;;6.68;4.03;;;17.30;64.80;;;;;;4984234;28;20093;-48
2022/05/24 03:05:35;;;;;;;6.05;4.20;;;17.30;64.70;;;;;;4991549;28;20046;-47
2022/05/24 03:11:05;;;;;;;6.20;3.75;;;17.30;64.60;;;;;;4938529;28;20149;-47
2022/05/24 03:16:20;;;;;;;7.80;3.85;;;17.30;64.50;;;;;;4992821;28;20083;-47
2022/05/24 03:18:51;;;;;;;7.10;4.15;;;17.30;64.40;;;;;;4992865;28;20042;-50
2022/05/24 03:21:23;;;;;;;5.88;3.65;;;17.20;64.30;;;;;;4992631;28;20042;-45
2022/05/24 03:23:51;;;;;;;5.07;3.40;;;17.20;64.10;;;;;;4988767;28;20040;-45
2022/05/24 03:26:21;;;;;;;6.78;3.45;;;17.20;64.00;;;;;;4992684;28;20507;-48
2022/05/24 03:28:54;;;;;;;6.60;3.25;;;17.20;63.80;;;;;;4992633;28;20074;-46
2022/05/24 03:31:25;;;;;;;5.25;3.60;;;17.20;63.90;;;;;;4988016;28;20125;-46
2022/05/24 03:33:53;;;;;;;4.35;3.03;;;17.20;63.80;;;;;;4990185;28;20077;-48
2022/05/24 03:36:27;;;;;;;2.78;2.47;;;17.20;63.70;;;;;;4992420;28;20074;-45
2022/05/24 03:38:56;;;;;;;2.70;2.40;;;17.10;63.50;;;;;;4991314;28;20166;-50
2022/05/24 03:41:23;;;;;;;5.55;2.33;;;17.10;63.40;;;;;;4993206;28;20042;-45
2022/05/24 03:43:52;;;;;;;3.85;2.58;;;17.10;63.40;;;;;;4993090;28;20084;-47
2022/05/24 03:46:19;;;;;;;5.10;2.83;;;17.00;63.30;;;;;;4991916;28;20046;-45
2022/05/24 03:48:46;;;;;;;4.50;1.98;;;17.00;63.60;;;;;;4989860;28;20117;-45
2022/05/24 03:51:18;;;;;;;3.03;1.98;;;17.00;63.40;;;;;;4989917;28;20058;-49
2022/05/24 03:53:52;;;;;;;4.20;1.92;;;17.00;63.40;;;;;;4992793;28;20085;-48
2022/05/24 03:56:24;;;;;;;4.90;1.85;;;17.00;63.40;;;;;;4992303;28;20149;-45
2022/05/24 03:59:00;;;;;;;5.18;2.30;;;17.00;63.30;;;;;;4990168;28;20105;-47
2022/05/24 04:01:27;;;;;;;1.88;1.63;;;17.00;63.20;;;;;;4993033;28;20450;-49
2022/05/24 04:03:56;;;;;;;2.85;1.67;;;17.00;63.20;;;;;;4992737;28;20042;-47
2022/05/24 04:06:25;;;;;;;4.60;1.92;;;17.00;63.10;;;;;;4991934;28;20092;-44
2022/05/24 04:08:57;;;;;;;3.35;2.00;;;17.00;63.20;;;;;;4985803;28;20046;-45
2022/05/24 04:11:24;;;;;;;2.42;1.48;;;17.00;63.10;;;;;;4990715;28;20042;-46
2022/05/24 04:13:52;;;;;;;2.70;1.77;;;17.00;62.90;;;;;;4989228;28;20057;-45
2022/05/24 04:16:25;;;;;;;3.17;2.05;;;17.00;62.60;;;;;;4991507;28;20125;-45
2022/05/24 04:18:53;;;;;;;6.03;1.95;;;17.00;62.70;;;;;;4990550;28;20046;-49
2022/05/24 04:21:20;;;;;;;3.40;2.03;;;17.00;62.70;;;;;;4992411;28;20042;-48
2022/05/24 04:23:46;;;;;;;3.40;1.42;;;16.90;62.60;;;;;;4999615;28;20030;-51
2022/05/24 04:26:13;;;;;;;4.18;1.52;;;16.90;62.60;;;;;;4987882;28;20121;-50
2022/05/24 04:28:40;;;;;;;3.28;1.77;;;17.00;62.70;;;;;;4985639;28;20098;-49
2022/05/24 04:31:06;;;;;;;5.30;1.77;;;16.90;62.60;;;;;;4990787;28;20070;-49
2022/05/24 04:33:35;;;;;;;4.07;1.77;;;16.90;62.50;;;;;;4994551;28;20132;-50
2022/05/24 04:36:02;;;;;;;4.10;1.98;;;16.90;62.40;;;;;;4999356;28;20052;-46
2022/05/24 04:38:29;;;;;;;2.63;1.55;;;16.90;62.30;;;;;;4989817;28;20038;-48
2022/05/24 04:43:41;;;;;;;2.50;1.40;;;16.90;62.40;;;;;;4999382;28;20088;-50
2022/05/24 04:46:08;;;;;;;1.80;1.48;;;16.90;62.30;;;;;;4988397;28;20072;-49
2022/05/24 04:48:35;;;;;;;2.10;1.23;;;16.90;62.70;;;;;;4985333;28;20508;-50
2022/05/24 04:51:02;;;;;;;3.40;1.38;;;16.90;62.50;;;;;;4999152;28;20038;-47
2022/05/24 04:53:28;;;;;;;5.18;2.22;;;16.90;62.60;;;;;;4994230;28;20046;-48
2022/05/24 04:55:55;;;;;;;3.33;1.80;;;16.90;62.40;;;;;;4992770;28;20038;-46
2022/05/24 04:58:23;;;;;;;4.00;2.03;;;16.90;62.40;;;;;;4997169;28;20520;-45
2022/05/24 05:00:50;;;;;;;4.05;1.70;;;16.90;62.50;;;;;;4998386;28;20104;-48
2022/05/24 05:03:19;;;;;;;4.53;1.70;;;16.90;62.40;;;;;;5003033;28;20546;-49
2022/05/24 05:05:48;;;;;;;3.33;1.50;;;16.90;62.60;;;;;;4984713;28;20035;-48
2022/05/24 05:08:16;;;;;;;4.22;1.90;;;16.90;62.40;;;;;;5002278;28;20076;-50
2022/05/24 05:10:42;;;;;;;6.88;1.55;;;16.80;62.60;;;;;;4994251;28;20038;-48
2022/05/24 05:13:15;;;;;;;2.22;1.60;;;16.80;62.50;;;;;;4999228;28;20046;-47
2022/05/24 05:15:42;;;;;;;2.42;1.20;;;16.70;62.80;;;;;;5000298;28;20054;-45
2022/05/24 05:18:12;;;;;;;6.03;1.42;;;16.70;62.80;;;;;;5001051;28;20464;-50
2022/05/24 05:20:41;;;;;;;6.20;1.95;;;16.70;63.10;;;;;;4990070;28;20047;-50
2022/05/24 05:23:10;;;;;;;5.68;1.75;;;16.70;62.90;;;;;;4970248;28;20058;-47
2022/05/24 05:25:38;;;;;;;3.78;1.20;;;16.80;63.40;;;;;;4982187;28;20073;-50
2022/05/24 05:28:05;;;;;;;5.35;1.63;;;16.70;63.20;;;;;;4984925;28;20727;-49
2022/05/24 05:33:17;;;;;;;1.65;1.55;;;16.60;64.20;;;;;;4985820;28;20181;-50
2022/05/24 05:35:46;;;;;;;3.70;1.83;;;16.60;63.40;;;;;;4984660;28;20081;-48
2022/05/24 05:38:13;;;;;;;3.78;1.30;;;16.50;63.40;;;;;;4982876;28;20105;-47
2022/05/24 05:40:40;;;;;;;3.08;1.40;;;16.50;63.60;;;;;;4985655;28;20069;-50
2022/05/24 05:43:07;;;;;;;2.55;1.85;;;16.50;63.80;;;;;;4967996;28;20078;-45
2022/05/24 05:45:34;;;;;;;3.55;1.48;;;16.50;63.80;;;;;;4990057;28;20050;-49
2022/05/24 05:48:03;;;;;;;3.30;1.80;;;16.50;64.00;;;;;;4988674;28;20057;-47
2022/05/24 05:50:30;;;;;;;4.68;1.65;;;16.40;64.10;;;;;;4988771;28;20140;-49
2022/05/24 05:52:57;;;;;;;2.03;1.67;;;16.40;64.40;;;;;;4991610;28;20038;-49
2022/05/24 05:55:25;;;;;;;2.88;1.27;;;16.50;64.60;;;;;;4990229;28;20054;-49
2022/05/24 05:57:52;;;;;;;5.50;1.77;;;16.50;64.70;;;;;;4990515;28;20096;-48
2022/05/24 06:00:19;;;;;;;3.67;1.27;;;16.50;64.60;;;;;;4986566;28;20040;-47
2022/05/24 06:02:46;;;;;;;3.83;1.27;;;16.50;64.40;;;;;;4986464;28;20039;-49
2022/05/24 06:05:14;;;;;;;2.20;1.20;;;16.50;64.30;;;;;;4988953;28;20053;-46
2022/05/24 06:07:40;;;;;;;3.58;1.80;;;16.60;64.30;;;;;;4991008;28;20038;-49
2022/05/24 06:10:09;;;;;;;4.47;1.52;;;16.60;64.30;;;;;;4986443;28;20097;-47
2022/05/24 06:12:36;;;;;;;2.97;1.80;;;16.70;64.50;;;;;;4981861;28;20089;-47
2022/05/24 06:15:03;;;;;;;5.18;1.40;;;16.70;64.60;;;;;;4990126;28;20518;-47
2022/05/24 06:17:30;;;;;;;5.15;1.52;;;16.70;64.20;;;;;;4990785;28;20049;-49
2022/05/24 06:20:01;;;;;;;2.47;1.13;;;16.70;64.20;;;;;;4986972;28;20145;-49
2022/05/24 06:22:28;;;;;;;2.97;1.40;;;16.70;64.70;;;;;;4986912;28;20522;-50
2022/05/24 06:24:55;;;;;;;2.70;1.33;;;16.70;64.60;;;;;;4991405;28;20061;-49
2022/05/24 06:27:22;;;;;;;3.60;1.45;;;16.80;64.70;;;;;;4989748;28;20042;-51
2022/05/24 06:29:49;;;;;;;3.35;2.13;;;16.80;64.70;;;;;;4989040;28;20042;-50
2022/05/24 06:32:16;;;;;;;2.47;1.35;;;16.80;64.30;;;;;;4988664;28;20513;-51
2022/05/24 06:34:45;;;;;;;2.10;1.75;;;16.80;64.30;;;;;;4991870;28;20046;-50
2022/05/24 06:37:16;;;;;;;4.30;1.48;;;16.80;64.40;;;;;;4991979;28;20065;-50
2022/05/24 06:39:45;;;;;;;4.38;1.67;;;16.80;64.10;;;;;;4969160;28;20066;-50
2022/05/24 06:42:12;;;;;;;3.67;1.70;;;16.80;64.20;;;;;;4991360;28;20042;-46
2022/05/24 06:44:39;;;;;;;3.80;2.00;;;16.80;63.90;;;;;;4991854;28;20088;-49
2022/05/24 06:47:06;;;;;;;2.92;1.60;;;16.80;63.90;;;;;;4988514;28;20046;-51
2022/05/24 06:49:33;;;;;;;3.70;1.67;;;16.80;63.90;;;;;;4997421;28;20469;-49
2022/05/24 06:52:00;;;;;;;3.83;1.77;;;16.80;64.10;;;;;;4997435;28;20488;-50
2022/05/24 06:54:27;;;;;;;6.18;1.58;;;16.80;64.20;;;;;;5009126;28;20681;-47
2022/05/24 06:56:55;;;;;;;3.47;1.45;;;16.80;64.70;;;;;;4987836;28;20129;-51
2022/05/24 07:02:26;;;;;;;4.25;1.80;;;16.70;63.90;;;;;;4991270;28;20038;-48
2022/05/24 07:05:10;;;;;;;2.83;1.70;;;16.70;64.40;;;;;;4988272;28;20713;-47
2022/05/24 07:07:37;;;;;;;2.03;1.55;;;16.80;64.30;;;;;;4991619;28;20039;-48
2022/05/24 07:10:06;;;;;;;2.78;1.45;;;16.80;64.60;;;;;;4990905;28;20034;-47
2022/05/24 07:12:34;;;;;;;1.85;1.45;;;16.90;64.50;;;;;;4988938;28;20113;-47
2022/05/24 07:15:00;;;;;;;3.53;1.60;;;16.90;64.70;;;;;;4985280;28;20038;-49
2022/05/24 07:17:27;;;;;;;3.30;1.60;;;17.10;64.70;;;;;;4985253;28;20046;-48
2022/05/24 07:19:54;;;;;;;4.88;1.60;;;17.20;65.30;;;;;;4990599;28;20046;-48
2022/05/24 07:22:48;;;;;;;5.47;2.17;;;17.40;64.60;;;;;;4991437;23;20039;31
2022/05/24 07:25:16;;;;;;;3.40;1.60;;;17.70;64.60;;;;;;4949900;29;20079;-44
2022/05/24 07:27:43;;;;;;;6.55;2.20;;;17.60;63.50;;;;;;4951651;29;20070;-44
2022/05/24 07:30:10;;;;;;;4.13;2.13;;;17.70;63.20;;;;;;4952182;29;20078;-47
2022/05/24 07:32:39;;;;;;;2.80;2.13;;;17.70;62.00;;;;;;4944687;29;20079;-45
2022/05/24 07:35:06;;;;;;;6.22;2.17;;;17.70;62.30;;;;;;4950737;29;20067;-44
2022/05/24 07:37:33;;;;;;;2.60;1.50;;;17.80;62.00;;;;;;4950983;28;20126;-45
2022/05/24 07:45:48;;;;;;;3.15;1.77;;;18.00;60.40;;;;;;4951498;29;20126;-44
2022/05/24 07:48:20;;;;;;;2.03;1.52;;;18.10;60.40;;;;;;4953600;29;20081;-45
2022/05/24 07:50:47;;;;;;;2.50;1.33;;;18.20;59.50;;;;;;4951170;29;20051;-45
2022/05/24 07:53:14;;;;;;;3.33;1.50;;;18.20;59.40;;;;;;4952299;29;20078;-48
2022/05/24 07:55:41;;;;;;;2.47;1.38;;;18.20;59.20;;;;;;4951104;29;20031;-45
2022/05/24 07:58:08;;;;;;;4.68;1.95;;;18.30;58.80;;;;;;4953432;29;20035;-45
2022/05/24 08:00:35;;;;;;;4.00;1.63;;;18.30;58.70;;;;;;4952309;29;20518;-46
2022/05/24 08:03:04;;;;;;;4.35;1.38;;;18.30;58.30;;;;;;4952495;29;20543;-44
2022/05/24 08:05:33;;;;;;;2.00;1.40;;;18.20;57.80;;;;;;4950849;28;20077;-44
2022/05/24 08:08:00;;;;;;;1.48;1.23;;;18.20;58.20;;;;;;4953882;29;20102;-44
2022/05/24 08:10:28;;;;;;;2.42;1.40;;;18.20;58.70;;;;;;4949890;29;20055;-48
2022/05/24 08:12:56;;;;;;;2.30;1.50;;;18.20;58.70;;;;;;4951476;29;20086;-45
2022/05/24 08:15:24;;;;;;;5.60;1.50;;;18.20;58.70;;;;;;4950084;29;20107;-44
2022/05/24 08:17:51;;;;;;;3.55;1.52;;;18.20;59.50;;;;;;4952317;29;20562;-44
2022/05/24 08:20:18;;;;;;;2.97;1.80;;;18.30;59.20;;;;;;4951672;29;20492;-44
2022/05/24 08:22:46;;;;;;;2.00;1.80;;;18.30;58.40;;;;;;4951014;29;20051;-47
2022/05/24 08:25:13;;;;;;;4.78;2.55;;;18.40;57.80;;;;;;4950865;29;20106;-43
2022/05/24 08:27:40;;;;;;;2.80;1.40;;;18.40;57.70;;;;;;4952014;29;20076;-44
2022/05/24 08:30:14;;;;;;;1.83;1.10;;;18.50;57.10;;;;;;4950791;29;20055;-46
2022/05/24 08:32:42;;;;;;;2.63;1.35;;;18.50;56.80;;;;;;4949144;29;20035;-45
2022/05/24 08:35:11;;;;;;;1.95;1.40;;;18.50;56.90;;;;;;4951300;29;20035;-44
2022/05/24 08:37:40;;;;;;;2.22;1.35;;;18.40;56.40;;;;;;4946938;29;20118;-47
2022/05/24 08:40:09;;;;;;;2.67;1.00;;;18.40;56.60;;;;;;4950739;29;20035;-45
2022/05/24 08:43:08;;;;;;;1.95;1.48;;;18.40;56.70;;;;;;4951777;29;20087;-45
2022/05/24 08:48:51;;;;;;;2.22;0.90;;;18.40;56.20;;;;;;4950921;29;20043;-44
2022/05/24 08:51:28;;;;;;;3.28;0.77;;;18.50;55.90;;;;;;4951101;29;20725;-44
2022/05/24 08:54:02;;;;;;;1.90;0.82;;;18.50;56.20;;;;;;4951777;29;20062;-45
2022/05/24 08:56:37;;;;;;;1.80;1.33;;;18.50;56.00;;;;;;4951037;29;20051;-46
2022/05/24 08:59:15;;;;;;;1.75;0.60;;;18.50;55.40;;;;;;4951178;29;20097;-45
2022/05/24 09:01:42;;;;;;;0.82;0.52;;;18.50;55.20;;;;;;4944263;29;20065;-44
2022/05/24 09:04:11;;;;;;;1.13;0.65;;;18.50;56.50;;;;;;4935064;29;20047;-47
2022/05/24 09:06:51;;;;;;;4.22;1.42;;;18.60;56.60;;;;;;4944397;29;20051;-46
2022/05/24 09:09:29;;;;;;;;;;;18.60;56.20;;;;;;4951235;29;20051;-46
2022/05/24 09:12:15;;;;;;;1.90;1.50;;;18.80;56.00;;;;;;4950301;29;19958;-45
2022/05/24 09:15:05;;;;;;;1.02;0.70;;;18.80;54.90;;;;;;4945340;28;20189;-45
2022/05/24 09:18:04;;;;;;;3.38;0.90;;;18.80;55.40;;;;;;4957496;28;20039;-44
2022/05/24 09:20:38;;;;;;;1.50;0.88;;;18.80;55.70;;;;;;4955602;28;20106;-44
2022/05/24 09:23:55;;;;;;;4.75;1.05;;;18.90;55.90;;;;;;4959965;28;20047;-43
2022/05/24 09:26:24;;;;;;;2.08;0.82;;;18.90;55.10;;;;;;4942121;28;20090;-44
2022/05/24 09:28:54;;;;;;;2.22;0.93;;;19.00;55.90;;;;;;4955772;28;20066;-45
2022/05/24 09:31:35;;;;;;;1.42;1.10;;;19.00;55.60;;;;;;4955322;28;20055;-44
2022/05/24 09:34:17;;;;;;;2.17;0.77;;;19.10;55.80;;;;;;4952085;29;20047;-45
2022/05/24 09:37:22;;;;;;;1.15;0.70;;;19.20;56.10;;;;;;4947021;29;20396;-45
2022/05/24 09:39:57;;;;;;;3.20;1.08;;;19.30;55.00;;;;;;4944730;29;20038;-44
2022/05/24 09:42:29;;;;;;;2.47;1.15;;;19.40;54.30;;;;;;4957927;28;20102;-43
2022/05/24 09:45:09;;;;;;;1.55;1.00;;;19.40;54.10;;;;;;4949137;28;20039;-46
2022/05/24 09:47:38;;;;;;;0.70;0.70;;;19.50;53.00;;;;;;4953684;28;20043;-44
2022/05/24 09:50:20;;;;;;;2.78;0.88;;;19.60;54.20;;;;;;4960785;28;20051;-47
2022/05/24 09:53:02;;;;;;;;;;;19.60;53.30;;;;;;4958662;28;20047;-45
2022/05/24 09:55:30;;;;;;;4.88;1.10;;;19.70;53.90;;;;;;4958314;28;19926;-44
2022/05/24 09:58:18;;;;;;;1.50;0.70;;;19.80;53.20;;;;;;4958610;28;20093;-46
2022/05/24 10:01:07;;;;;;;0.52;0.47;;;19.80;51.80;;;;;;4943800;29;20094;-48
2022/05/24 10:03:36;;;;;;;2.70;1.08;;;19.80;51.40;;;;;;4951926;29;20039;-45
2022/05/24 10:06:08;;;;;;;1.52;0.65;;;19.90;51.60;;;;;;4941490;29;20086;-49
2022/05/24 10:08:44;;;;;;;1.02;0.80;;;19.90;51.20;;;;;;4945630;29;20051;-49
2022/05/24 10:11:26;;;;;;;1.35;0.95;;;19.90;50.60;;;;;;4947547;29;20043;-46
2022/05/24 10:14:05;;;;;;;2.50;0.73;;;19.80;50.60;;;;;;4949331;28;20039;-46
2022/05/24 10:16:55;;;;;;;1.75;0.63;;;19.80;51.00;;;;;;4948092;29;20455;-47
2022/05/24 10:19:59;;;;;;;0.95;0.50;;;19.80;50.80;;;;;;4949339;29;20047;-44
2022/05/24 10:22:44;;;;;;;2.45;0.80;;;19.80;50.20;;;;;;4950229;29;20043;-46
2022/05/24 10:25:32;;;;;;;1.40;0.60;;;19.80;50.80;;;;;;4947702;29;20110;-50
2022/05/24 10:27:59;;;;;;;2.30;1.30;;;19.80;51.50;;;;;;4951151;28;20621;-46
2022/05/24 10:31:26;;;;;;;0.85;0.70;;;19.80;51.80;;;;;;4956747;28;20118;-45
2022/05/24 10:40:20;;;;;;;4.00;0.60;;;20.20;51.50;;;;;;4960369;28;20047;-48
2022/05/24 10:43:09;;;;;;;1.25;0.70;;;20.30;51.30;;;;;;4957262;28;20040;-47
2022/05/24 10:45:50;;;;;;;2.00;0.88;;;20.50;51.80;;;;;;4958176;28;20047;-46
2022/05/24 10:48:43;;;;;;;0.82;0.63;;;20.60;51.20;;;;;;4957093;28;20078;-46
2022/05/24 10:51:27;;;;;;;2.17;0.90;;;20.70;50.50;;;;;;4947241;28;20212;-47
2022/05/24 10:54:01;;;;;;;1.85;1.35;;;20.70;50.20;;;;;;4960277;28;20574;-49
2022/05/24 10:56:33;;;;;;;0.90;0.50;;;20.70;50.90;;;;;;4961525;28;20074;-49
2022/05/24 10:59:11;;;;;;;1.50;1.05;;;20.70;50.10;;;;;;4961591;28;20070;-48
2022/05/24 11:01:44;;;;;;;1.80;1.10;;;20.70;49.90;;;;;;4959855;28;20047;-50
2022/05/24 11:04:18;;;;;;;2.00;1.10;;;20.70;50.40;;;;;;4961307;28;20035;-50
2022/05/24 11:07:14;;;;;;;1.58;1.08;;;20.70;50.00;;;;;;4958136;28;20040;-47
2022/05/24 11:09:57;;;;;;;1.52;1.00;;;20.70;49.30;;;;;;4963713;28;20098;-46
2022/05/24 11:12:32;;;;;;;3.33;1.08;;;20.80;50.40;;;;;;4953291;28;20051;-46
2022/05/24 11:15:18;;;;;;;1.73;0.80;;;20.90;50.30;;;;;;4961489;28;20043;-47
2022/05/24 11:17:46;;;;;;;2.10;1.00;;;21.00;49.70;;;;;;4956041;28;20499;-47
2022/05/24 11:20:14;;;;;;;2.58;0.98;;;21.20;50.20;;;;;;4958644;28;20442;-47
2022/05/24 11:22:51;;;;;;;0.77;0.77;;;21.30;49.80;;;;;;4959302;28;20070;-46
2022/05/24 11:25:21;;;;;;;5.05;1.30;;;21.40;49.00;;;;;;4960553;28;20082;-45
2022/05/24 11:27:50;;;;;;;3.17;0.75;;;21.50;48.90;;;;;;4960843;28;20046;-47
2022/05/24 11:30:26;;;;;;;2.15;0.88;;;21.50;48.50;;;;;;4954196;28;20603;-46
2022/05/24 11:33:07;;;;;;;2.72;1.45;;;21.60;48.20;;;;;;4960542;28;20035;-46
2022/05/24 11:35:41;;;;;;;2.42;0.60;;;21.60;50.00;;;;;;4956837;28;20039;-47
2022/05/24 11:38:20;;;;;;;2.00;0.50;;;21.50;48.30;;;;;;4951032;28;20054;-46
2022/05/24 11:41:17;;;;;;;0.30;0.30;;;21.30;47.60;;;;;;4941451;28;20043;-46
2022/05/24 11:43:44;;;;;;;0.75;0.20;;;21.20;47.50;;;;;;4957730;28;20039;-46
2022/05/24 11:46:14;;;;;;;0.52;0.10;;;21.00;48.20;;;;;;4963540;28;20047;-46
2022/05/24 11:48:47;;;;;;;0.15;0.15;;;20.80;48.00;;;;;;4958246;28;20035;-49
2022/05/24 11:51:44;;;;;;;0.45;0.10;;;20.70;48.00;;;;;;4939524;28;20440;-51
2022/05/24 11:54:21;;;;;;;0.40;0.20;;;20.60;48.30;;;;;;4960273;28;20113;-47
2022/05/24 11:57:01;;;;;;;0.30;0.20;;;20.50;48.40;;;;;;4959142;28;20047;-51
2022/05/24 11:59:40;;;;;;;0.30;0.25;;;20.40;48.30;;;;;;4955865;28;20043;-46
2022/05/24 12:02:19;;;;;;;0.40;0.40;;;20.50;49.10;;;;;;4952841;28;20491;-49
2022/05/24 12:07:56;;;;;;;1.08;0.50;;;20.60;49.90;;;;;;4954197;28;20071;-47
2022/05/24 12:10:24;;;;;;;1.45;0.88;;;20.70;49.60;;;;;;4952174;29;20047;-48
2022/05/24 12:13:02;;;;;;;1.63;0.70;;;20.80;49.40;;;;;;4950979;28;20118;-51
2022/05/24 12:15:29;;;;;;;1.38;0.70;;;20.90;48.80;;;;;;4948397;28;20135;-51
2022/05/24 12:17:59;;;;;;;0.82;0.60;;;21.00;48.80;;;;;;4951810;29;20063;-50
2022/05/24 12:20:34;;;;;;;1.80;1.00;;;21.10;48.60;;;;;;4949300;29;20043;-47
2022/05/24 12:23:07;;;;;;;1.40;0.57;;;21.30;47.80;;;;;;4950032;28;20043;-47
2022/05/24 12:25:52;;;;;;;0.50;0.40;;;21.40;47.10;;;;;;4948076;28;20052;-46
2022/05/24 12:28:22;;;;;;;1.60;0.85;;;21.60;47.30;;;;;;4941158;28;20047;-46
2022/05/24 12:30:51;;;;;;;0.43;0.43;;;21.80;47.30;;;;;;4951870;28;20051;-49
2022/05/24 12:33:30;;;;;;;1.13;0.80;;;21.90;47.30;;;;;;4948673;28;20102;-45
2022/05/24 12:36:05;;;;;;;1.52;0.90;;;22.00;47.00;;;;;;4950898;28;20035;-51
2022/05/24 12:38:35;;;;;;;6.35;1.33;;;22.10;46.60;;;;;;4950115;29;20075;-50
2022/05/24 12:41:13;;;;;;;0.38;0.25;;;22.00;58.20;;;;;;4951211;29;20082;-49
2022/05/24 12:43:59;;;;;;;1.00;0.60;;;21.70;58.70;;;;;;4951720;29;20054;-46
2022/05/24 12:46:39;;;;;;;0.38;0.30;;;21.30;59.00;;;;;;4948233;29;20058;-48
2022/05/24 12:49:18;;;;;;;1.35;0.43;;;20.90;58.40;;;;;;4950070;29;20039;-49
2022/05/24 12:51:44;;;;;;;0.20;0.20;;;20.40;59.70;;;;;;4950615;28;20126;-48
2022/05/24 12:54:19;;;;;;;2.53;0.50;;;20.10;60.50;;;;;;4946433;28;20039;-47
2022/05/24 12:56:58;;;;;;;0.32;0.28;;;19.70;62.60;;;;;;4944777;29;20102;-48
2022/05/24 12:59:36;;;;;;;0.28;0.20;;;19.40;64.00;;;;;;4950087;29;20087;-46
2022/05/24 13:02:15;;;;;;;0.93;0.30;;;19.30;62.50;;;;;;4954462;28;20046;-49
2022/05/24 13:04:44;;;;;;;2.80;0.50;;;19.10;64.10;;;;;;4948392;29;20039;-48
2022/05/24 13:07:48;;;;;;;1.63;0.40;;;19.10;64.20;;;;;;4935941;28;20051;-46
2022/05/24 13:10:39;;;;;;;1.92;0.50;;;19.10;64.20;;;;;;4936948;28;20067;-48
2022/05/24 13:13:23;;;;;;;1.50;0.50;;;19.20;65.90;;;;;;4909504;28;20051;-45
2022/05/24 13:15:56;;;;;;;0.75;0.50;;;19.30;64.90;;;;;;4942734;28;20047;-50
2022/05/24 13:18:29;;;;;;;1.15;0.68;;;19.30;63.50;;;;;;4936068;28;20050;-48
2022/05/24 13:20:59;;;;;;;4.85;0.80;;;19.40;61.70;;;;;;4940038;28;20074;-45
2022/05/24 13:23:34;;;;;;;1.55;0.70;;;19.40;61.30;;;;;;4935109;28;20126;-49
2022/05/24 13:26:08;;;;;;;0.80;0.60;;;19.40;60.70;;;;;;4942896;29;20074;-47
2022/05/24 13:28:46;;;;;;;1.30;1.20;;;19.40;60.50;;;;;;4929497;28;20050;-48
2022/05/24 13:34:25;;;;;;;0.88;0.82;;;19.60;58.50;;;;;;4933301;28;20682;-48
2022/05/24 13:36:55;;;;;;;0.40;0.35;;;19.70;57.60;;;;;;4941736;29;20102;-46
2022/05/24 13:39:23;;;;;;;0.75;0.40;;;19.90;59.00;;;;;;4934871;28;20093;-47
2022/05/24 13:42:07;;;;;;;0.57;0.50;;;20.10;56.50;;;;;;4944388;28;20078;-49
2022/05/24 13:45:11;;;;;;;0.88;0.55;;;20.30;53.90;;;;;;4937134;28;20067;-45
2022/05/24 13:47:40;;;;;;;1.15;0.40;;;20.50;53.20;;;;;;4940074;28;20047;-46
2022/05/24 13:50:25;;;;;;;0.55;0.40;;;20.80;55.00;;;;;;4942981;28;20135;-49
2022/05/24 13:52:55;;;;;;;0.82;0.75;;;21.10;53.10;;;;;;4938675;28;21058;-49
2022/05/24 13:55:31;;;;;;;1.98;0.85;;;21.40;51.20;;;;;;4948615;28;20070;-46
2022/05/24 13:58:06;;;;;;;0.88;0.60;;;21.60;50.20;;;;;;4940488;28;20087;-47
2022/05/24 14:00:39;;;;;;;0.75;0.75;;;21.70;49.10;;;;;;4946517;28;20472;-47
2022/05/24 14:03:17;;;;;;;1.58;0.75;;;21.60;48.60;;;;;;4942741;28;20089;-46
2022/05/24 14:06:02;;;;;;;1.88;0.93;;;21.50;49.30;;;;;;4945223;28;20047;-48